• Join FlightAware (Why Join?)
  • Login
  • US Flag 
11:54PM EDT


 

Airport Tracker/Info


-or-


 

Live Flight TrackerFlight Track Log ✈ UAL525 ✈ 08-May-2013 ✈ KIAH - KSAN

Flight Track Log - Related Links

Times and Time Zones

All times are in EDT time to prevent confusion due to time zone crossing. See the UAL525 flight status page for this flight to view local times or setup timezone preferences in your user account.

Time Position Orientation Groundspeed Altitude Reporting Facility
EDT Latitude Longitude Course Direction KTS MPH feet Rate Location/Type
07:05PM 29.9572 -95.3417 276° West 190 219 600  Level Houston Center
07:06PM 29.9322 -95.3422 181° South 202 232 1,800 2,520 Climbing Houston Center
07:06PM 29.9153 -95.3686 233° Southwest 253 291 3,300 2,700 Climbing Houston Center
07:07PM 29.8983 -95.4092 244° Southwest 256 295 4,600 2,460 Climbing Houston Center
07:08PM 29.9069 -95.4444 286° West 258 297 5,900 2,640 Climbing Houston Center
07:09PM 29.9289 -95.5311 286° West 283 326 8,900 2,580 Climbing Houston Center
07:10PM 29.9506 -95.6192 286° West 285 328 11,300 2,280 Climbing Houston Center
07:11PM 30.0670 -96.0534 276° West  Level FlightAware Approximate
07:11PM 29.9819 -95.7469 286° West 342 394 13,700  Level Houston Center
07:12PM 30.0083 -95.8586 285° West 361 415 16,300 2,700 Climbing Houston Center
07:13PM 30.0356 -95.9725 285° West 369 425 19,300 2,520 Climbing Houston Center
07:14PM 30.0631 -96.0858 286° West 364 419 21,600 1,980 Climbing Houston Center
07:15PM 30.0900 -96.1994 285° West 369 425 23,500 1,860 Climbing Houston Center
07:16PM 30.1158 -96.3431 282° West 382 440 25,500 1,500 Climbing Houston Center
07:17PM 30.1353 -96.4761 280° West 403 464 26,700 1,380 Climbing Houston Center
07:18PM 30.1544 -96.6094 279° West 414 476 28,400 1,560 Climbing Houston Center
07:19PM 30.1747 -96.7378 280° West 407 468 30,000 720 Climbing Houston Center
07:20PM 30.1939 -96.8669 280° West 404 465 30,000 60 Level Houston Center
07:21PM 30.2128 -96.9989 279° West 408 470 30,200 900 Climbing Houston Center
07:22PM 30.2328 -97.1300 280° West 409 471 31,900 840 Climbing Houston Center
07:23PM 30.2511 -97.2572 280° West 399 459 32,000 420 Climbing Houston Center
07:24PM 30.2694 -97.3842 280° West 395 455 32,800 1,260 Climbing Houston Center
07:25PM 30.2883 -97.5139 280° West 400 460 34,700 1,500 Climbing Houston Center
07:26PM 30.3078 -97.6483 280° West 365 420 36,000 600 Climbing Houston Center
07:27PM 30.3236 -97.7614 279° West 354 407 36,000  Level Houston Center
07:28PM 30.3397 -97.8786 279° West 363 418 36,000  Level Houston Center
07:29PM 30.3567 -97.9950 280° West 364 419 36,000  Level Houston Center
07:30PM 30.3733 -98.1114 279° West 363 418 36,000  Level Houston Center
07:31PM 30.3906 -98.2303 280° West 368 423 36,000  Level Houston Center
07:32PM 30.4056 -98.3467 279° West 363 418 36,000  Level Houston Center
07:33PM 30.4239 -98.4817 279° West 361 415 36,000  Level Houston Center
07:34PM 30.4378 -98.5961 278° West 356 410 36,000  Level Houston Center
07:35PM 30.4533 -98.7111 279° West 359 413 36,000  Level Houston Center
07:36PM 30.4681 -98.8239 279° West 355 409 36,000  Level Houston Center
07:38PM 30.4839 -98.9406 279° West 360 414 36,000  Level Houston Center
07:39PM 30.4989 -99.0561 279° West 360 414 36,000 -60 Level Houston Center
07:40PM 30.5167 -99.1761 280° West 360 414 35,900  Descending Houston Center
07:41PM 30.5314 -99.2906 279° West 360 414 36,000  Climbing Houston Center
07:42PM 30.5467 -99.4047 279° West 359 413 36,000  Level Houston Center
07:43PM 30.5614 -99.5181 279° West 358 412 36,000  Level Houston Center
07:44PM 30.5900 -99.6511 284° West 357 411 36,000 -60 Level Houston Center
07:45PM 30.6131 -99.7633 283° West 358 412 35,900  Descending Houston Center
07:46PM 30.6347 -99.8739 283° West 354 407 36,000  Climbing Houston Center
07:47PM 30.6583 -99.9839 284° West 354 407 36,000 -60 Level Houston Center
07:48PM 30.6817 -100.0936 284° West 353 406 35,900  Descending Houston Center
07:49PM 30.7086 -100.2244 284° West 350 403 36,000  Climbing Houston Center
07:50PM 30.7308 -100.3342 283° West 346 398 36,000  Level Houston Center
07:51PM 30.7547 -100.4456 284° West 359 413 36,000  Level Houston Center
07:52PM 30.7764 -100.5517 283° West 349 402 36,000  Level Houston Center
07:53PM 30.7997 -100.6619 284° West 354 407 36,000  Level Houston Center
07:54PM 30.8222 -100.7731 283° West 355 409 36,000  Level Houston Center
07:55PM 30.8492 -100.9039 284° West 354 407 36,000  Level Houston Center
07:56PM 30.8708 -101.0131 283° West 351 404 36,000 -60 Level Houston Center
07:57PM 30.8922 -101.1239 283° West 353 406 35,900  Descending Houston Center
07:58PM 30.9175 -101.2303 286° West 346 398 36,000  Climbing Houston Center
07:59PM 30.9394 -101.3469 282° West 353 406 36,000 -60 Level Houston Center
08:00PM 30.9611 -101.4589 283° West 358 412 35,900 -60 Descending Houston Center
08:01PM 30.9817 -101.5700 282° West 355 409 35,900  Level Albuquerque Center
08:02PM 31.0044 -101.6814 283° West 355 409 36,000  Climbing Albuquerque Center
08:03PM 31.0253 -101.7950 282° West 356 410 36,000  Level Albuquerque Center
08:04PM 31.0467 -101.9053 283° West 353 406 36,000  Level Albuquerque Center
08:05PM 31.0697 -102.0222 283° West 362 417 36,000  Level Albuquerque Center
08:06PM 31.0906 -102.1331 282° West 354 407 36,000  Level Albuquerque Center
08:07PM 31.1117 -102.2431 283° West 350 403 36,000  Level Albuquerque Center
08:08PM 31.1317 -102.3544 282° West 350 403 36,000  Level Albuquerque Center
08:09PM 31.1533 -102.4636 283° West 347 399 36,000  Level Albuquerque Center
08:10PM 31.1739 -102.5772 282° West 344 396 36,000  Level Albuquerque Center
08:11PM 31.1986 -102.7075 283° West 342 394 36,000  Level Albuquerque Center
08:12PM 31.2186 -102.8167 282° West 343 395 36,000  Level Albuquerque Center
08:13PM 31.2394 -102.9275 282° West 347 399 36,000  Level Albuquerque Center
08:14PM 31.2594 -103.0372 282° West 347 399 36,000  Level Albuquerque Center
08:15PM 31.2792 -103.1461 282° West 345 397 36,000  Level Albuquerque Center
08:17PM 31.3003 -103.2561 283° West 346 398 36,000 -60 Level Albuquerque Center
08:18PM 31.3211 -103.3653 283° West 344 396 35,900  Descending Albuquerque Center
08:19PM 31.3447 -103.4989 282° West 350 403 36,000  Climbing Albuquerque Center
08:20PM 31.3650 -103.6092 282° West 347 399 36,000  Level Albuquerque Center
08:21PM 31.3850 -103.7192 282° West 346 398 36,000  Level Albuquerque Center
08:22PM 31.4064 -103.8358 282° West 348 400 36,000 -60 Level Albuquerque Center
08:23PM 31.4256 -103.9461 282° West 348 400 35,900  Descending Albuquerque Center
08:24PM 31.4461 -104.0561 282° West 347 399 36,000  Climbing Albuquerque Center
08:25PM 31.4650 -104.1681 281° West 351 404 36,000 -60 Level Albuquerque Center
08:26PM 31.4850 -104.2803 282° West 352 405 35,900 -60 Descending Albuquerque Center
08:27PM 31.5042 -104.3944 281° West 356 410 35,900  Level Albuquerque Center
08:28PM 31.5283 -104.5289 282° West 354 407 36,000  Climbing Albuquerque Center
08:29PM 31.5472 -104.6411 281° West 354 407 35,900 -60 Descending Albuquerque Center
08:30PM 31.5672 -104.7550 282° West 357 411 35,900  Level Albuquerque Center
08:31PM 31.5861 -104.8656 281° West 351 404 36,000  Climbing Albuquerque Center
08:32PM 31.6042 -104.9761 281° West 348 400 36,000 -60 Level Albuquerque Center
08:33PM 31.6225 -105.0869 281° West 348 400 35,900  Descending Albuquerque Center
08:34PM 31.6411 -105.1981 281° West 349 402 36,000  Climbing Albuquerque Center
08:35PM 31.6625 -105.3328 281° West 351 404 36,000 -60 Level Albuquerque Center
08:36PM 31.6811 -105.4436 281° West 348 400 35,900 -60 Descending Albuquerque Center
08:37PM 31.6997 -105.5564 281° West 353 406 35,900  Level Albuquerque Center
08:38PM 31.7178 -105.6681 281° West 351 404 36,000  Climbing Albuquerque Center
08:39PM 31.7364 -105.7803 281° West 351 404 36,000  Level Albuquerque Center
08:40PM 31.7550 -105.8936 281° West 355 409 36,000 -60 Level Albuquerque Center
08:41PM 31.7772 -106.0297 281° West 354 407 35,900  Descending Albuquerque Center
08:42PM 31.7953 -106.1414 281° West 351 404 36,000  Climbing Albuquerque Center
08:43PM 31.8150 -106.2547 282° West 353 406 35,900  Descending Albuquerque Center
08:44PM 31.8367 -106.3711 282° West 363 418 36,000  Climbing Albuquerque Center
08:45PM 31.8606 -106.4847 284° West 361 415 35,900  Descending Albuquerque Center
08:46PM 31.8850 -106.6133 283° West 359 413 36,000  Climbing Albuquerque Center
08:47PM 31.9075 -106.7244 283° West 351 404 36,000 -60 Level Albuquerque Center
08:48PM 31.9308 -106.8364 284° West 351 404 35,900  Descending Albuquerque Center
08:49PM 31.9531 -106.9469 283° West 348 400 36,000  Climbing Albuquerque Center
08:50PM 31.9744 -107.0572 283° West 346 398 36,000  Level Albuquerque Center
08:51PM 31.9972 -107.1683 284° West 347 399 36,000 -60 Level Albuquerque Center
08:52PM 32.0186 -107.2803 283° West 348 400 35,900  Descending Albuquerque Center
08:54PM 32.0406 -107.3917 283° West 348 400 36,000  Climbing Albuquerque Center
08:55PM 32.0664 -107.5247 283° West 346 398 36,000 -60 Level Albuquerque Center
08:56PM 32.0875 -107.6358 283° West 346 398 35,900 -60 Descending Albuquerque Center
08:57PM 32.1097 -107.7481 283° West 349 402 35,900  Level Albuquerque Center
08:58PM 32.1306 -107.8583 283° West 346 398 36,000  Climbing Albuquerque Center
08:59PM 32.1511 -107.9683 282° West 344 396 36,000  Level Albuquerque Center
09:00PM 32.1725 -108.0781 283° West 342 394 36,000  Level Albuquerque Center
09:01PM 32.1939 -108.1894 283° West 346 398 36,000  Level Albuquerque Center
09:02PM 32.2136 -108.3011 282° West 347 399 36,000  Level Albuquerque Center
09:03PM 32.2400 -108.4367 283° West 352 405 36,000  Level Albuquerque Center
09:04PM 32.2608 -108.5525 282° West 351 404 36,000  Level Albuquerque Center
09:05PM 32.2814 -108.6633 282° West 349 402 36,000  Level Albuquerque Center
09:06PM 32.3022 -108.7736 283° West 346 398 36,000  Level Albuquerque Center
09:07PM 32.3231 -108.8850 283° West 347 399 36,000  Level Albuquerque Center
09:08PM 32.3433 -108.9969 282° West 349 402 36,000  Level Albuquerque Center
09:09PM 32.3639 -109.1111 282° West 352 405 36,000  Level Albuquerque Center
09:10PM 32.3839 -109.2292 281° West 360 414 36,000  Level Albuquerque Center
09:11PM 32.4106 -109.3681 283° West 362 417 36,000  Level Albuquerque Center
09:12PM 32.4303 -109.4847 281° West 363 418 36,000  Level Albuquerque Center
09:13PM 32.4508 -109.6014 282° West 363 418 36,000  Level Albuquerque Center
09:14PM 32.4719 -109.7167 282° West 363 418 36,000  Level Albuquerque Center
09:15PM 32.4936 -109.8317 283° West 360 414 36,000  Level Albuquerque Center
09:16PM 32.5136 -109.9481 282° West 362 417 36,000  Level Albuquerque Center
09:17PM 32.5333 -110.0644 281° West 363 418 36,000  Level Albuquerque Center
09:18PM 32.5553 -110.1814 283° West 365 420 36,000  Level Albuquerque Center
09:19PM 32.5783 -110.3228 281° West 366 421 36,000  Level Albuquerque Center
09:20PM 32.5981 -110.4394 281° West 369 425 36,000  Level Albuquerque Center
09:21PM 32.6197 -110.5578 282° West 368 423 36,000  Level Albuquerque Center
09:22PM 32.6406 -110.6778 282° West 369 425 36,000  Level Albuquerque Center
09:23PM 32.6597 -110.8019 280° West 376 433 36,000  Level Albuquerque Center
09:24PM 32.6794 -110.9242 281° West 377 434 36,000  Level Albuquerque Center
09:25PM 32.7000 -111.0475 281° West 380 437 36,000  Level Albuquerque Center
09:26PM 32.7208 -111.1717 281° West 383 441 36,000  Level Albuquerque Center
09:27PM 32.7444 -111.3186 281° West 379 436 36,000  Level Albuquerque Center
09:28PM 32.7653 -111.4428 281° West 381 438 36,000  Level Albuquerque Center
09:29PM 32.7853 -111.5681 281° West 384 442 36,000  Level Albuquerque Center
09:30PM 32.8050 -111.6928 281° West 384 442 36,000  Level Albuquerque Center
09:31PM 32.8250 -111.8158 281° West 382 440 36,000  Level Albuquerque Center
09:32PM 32.8442 -111.9414 280° West 383 441 36,000  Level Albuquerque Center
09:33PM 32.8639 -112.0664 281° West 384 442 36,000  Level Albuquerque Center
09:35PM 32.8833 -112.1897 281° West 381 438 36,000  Level Albuquerque Center
09:36PM 32.9036 -112.3244 280° West 383 441 36,000  Level Albuquerque Center
09:37PM 32.9225 -112.4511 280° West 388 447 36,000  Level Albuquerque Center
09:38PM 32.9422 -112.5778 281° West 390 449 36,000 -60 Level Albuquerque Center
09:39PM 32.9486 -112.7333 273° West 398 458 35,900  Descending Albuquerque Center
09:40PM 32.9311 -112.8611 261° West 394 453 36,000 -120 Climbing Albuquerque Center
09:41PM 32.9136 -112.9897 261° West 396 456 35,700 -600 Descending Albuquerque Center
09:42PM 32.8964 -113.1189 261° West 398 458 34,800 -840 Descending Albuquerque Center
09:43PM 32.8786 -113.2453 261° West 393 452 34,000 -420 Descending Albuquerque Center
09:44PM 32.8606 -113.3731 260° West 393 452 34,000  Level Albuquerque Center
09:45PM 32.8425 -113.5036 261° West 398 458 34,000  Level Albuquerque Center
09:46PM 32.8203 -113.6611 261° West 402 463 34,000 -60 Level Albuquerque Center
09:47PM 32.8014 -113.7925 260° West 404 465 33,900  Descending Albuquerque Center
09:48PM 32.7825 -113.9239 260° West 405 466 34,000  Climbing Albuquerque Center
09:49PM 32.7739 -114.0583 266° West 411 473 34,000 -360 Level Albuquerque Center
09:50PM 32.7744 -114.1947 270° West 416 479 33,300 -840 Descending Albuquerque Center
09:51PM 32.7725 -114.3469 269° West 419 482 32,300 -840 Descending Los Angeles Center
09:52PM 32.7694 -114.4844 269° West 417 480 31,400 -900 Descending Los Angeles Center
09:53PM 32.7681 -114.6772 270° West 416 479 30,200 -1,080 Descending Los Angeles Center
09:55PM 32.7650 -114.8392 269° West 409 471 29,000 -1,020 Descending Los Angeles Center
09:56PM 32.7617 -114.9469 268° West 408 470 28,200 -900 Descending Los Angeles Center
09:57PM 32.7597 -115.0781 269° West 399 459 27,200 -1,080 Descending Los Angeles Center
09:58PM 32.7561 -115.2325 268° West 390 449 26,000 -1,080 Descending Los Angeles Center
09:59PM 32.7528 -115.3578 268° West 383 441 25,000 -900 Descending Los Angeles Center
10:00PM 32.7489 -115.4575 267° West 379 436 24,200 -1,080 Descending Los Angeles Center
10:01PM 32.7514 -115.6300 271° West 374 430 22,800 -1,200 Descending Los Angeles Center
10:02PM 32.7553 -115.7617 272° West 397 457 21,800 -1,500 Descending Los Angeles Center
10:03PM 32.7575 -115.8906 271° West 391 450 19,800 -2,220 Descending Los Angeles Center
10:04PM 32.7614 -116.0175 272° West 385 443 17,300 -2,340 Descending Los Angeles Center
10:05PM 32.7639 -116.1411 271° West 376 433 15,100 -2,160 Descending Los Angeles Center
10:06PM 32.7667 -116.2600 272° West 360 414 12,900 -2,040 Descending Los Angeles Center
10:07PM 32.7547 -116.3775 263° West 356 410 11,000 -1,560 Descending Los Angeles Center
10:08PM 32.7356 -116.4850 258° West 332 382 9,800 -900 Descending Los Angeles Center
10:09PM 32.7236 -116.5808 262° West 302 348 9,200 -840 Descending Los Angeles Center
10:10PM 32.7119 -116.6717 261° West 282 325 8,000 -1,320 Descending Los Angeles Center
10:11PM 32.7089 -116.7975 268° West 274 315 6,300 -1,260 Descending Los Angeles Center
10:12PM 32.6900 -116.8767 254° West 260 299 5,500 -1,020 Descending Los Angeles Center
10:13PM 32.6833 -116.9167 259° West 240 276 4,900 -1,500 Descending Southern California TRACON
10:14PM 32.6833 -116.9833 270° West 233 268 3,400 -1,500 Descending Southern California TRACON